sensor_id;sensor_type;location;lat;lon;timestamp;pressure;altitude;pressure_sealevel;temperature;humidity
68107;BME280;54892;47.488;19.026;2022-09-01T00:00:34;100003.47;;;18.95;72.69
68107;BME280;54892;47.488;19.026;2022-09-01T00:03:39;100002.63;;;18.85;73.86
68107;BME280;54892;47.488;19.026;2022-09-01T00:06:42;100001.75;;;18.59;74.36
68107;BME280;54892;47.488;19.026;2022-09-01T00:09:47;100006.66;;;18.65;74.74
68107;BME280;54892;47.488;19.026;2022-09-01T00:12:51;100020.03;;;18.65;74.56
68107;BME280;54892;47.488;19.026;2022-09-01T00:15:55;100012.72;;;18.48;75.57
68107;BME280;54892;47.488;19.026;2022-09-01T00:18:58;100015.56;;;18.52;75.34
68107;BME280;54892;47.488;19.026;2022-09-01T00:22:01;100025.84;;;18.67;75.24
68107;BME280;54892;47.488;19.026;2022-09-01T00:25:05;100029.78;;;18.70;74.66
68107;BME280;54892;47.488;19.026;2022-09-01T00:28:10;100030.72;;;18.65;74.60
68107;BME280;54892;47.488;19.026;2022-09-01T00:31:13;100035.47;;;18.68;74.69
68107;BME280;54892;47.488;19.026;2022-09-01T00:34:16;100044.50;;;18.50;74.39
68107;BME280;54892;47.488;19.026;2022-09-01T00:37:19;100044.00;;;18.48;74.69
68107;BME280;54892;47.488;19.026;2022-09-01T00:40:22;100044.97;;;18.52;75.69
68107;BME280;54892;47.488;19.026;2022-09-01T00:43:37;100047.50;;;18.57;75.76
68107;BME280;54892;47.488;19.026;2022-09-01T00:46:42;100049.84;;;18.50;76.12
68107;BME280;54892;47.488;19.026;2022-09-01T00:49:46;100045.25;;;18.50;75.55
68107;BME280;54892;47.488;19.026;2022-09-01T00:52:50;100050.66;;;18.59;74.67
68107;BME280;54892;47.488;19.026;2022-09-01T00:55:54;100054.00;;;18.33;74.77
68107;BME280;54892;47.488;19.026;2022-09-01T00:58:59;100052.75;;;18.39;75.53
68107;BME280;54892;47.488;19.026;2022-09-01T01:02:02;100048.03;;;18.36;75.34
68107;BME280;54892;47.488;19.026;2022-09-01T01:05:07;100061.56;;;18.40;75.95
68107;BME280;54892;47.488;19.026;2022-09-01T01:08:10;100062.53;;;18.44;76.51
68107;BME280;54892;47.488;19.026;2022-09-01T01:11:14;100053.38;;;18.36;76.05
68107;BME280;54892;47.488;19.026;2022-09-01T01:14:20;100054.47;;;18.35;75.66
68107;BME280;54892;47.488;19.026;2022-09-01T01:17:23;100057.94;;;18.36;75.13
68107;BME280;54892;47.488;19.026;2022-09-01T01:20:26;100061.19;;;18.33;75.38
68107;BME280;54892;47.488;19.026;2022-09-01T01:23:50;100054.72;;;18.25;74.99
68107;BME280;54892;47.488;19.026;2022-09-01T01:27:00;100057.66;;;18.15;75.11
68107;BME280;54892;47.488;19.026;2022-09-01T01:30:04;100054.84;;;18.20;74.97
68107;BME280;54892;47.488;19.026;2022-09-01T01:33:10;100050.87;;;17.94;75.27
68107;BME280;54892;47.488;19.026;2022-09-01T01:36:14;100049.78;;;17.95;76.04
68107;BME280;54892;47.488;19.026;2022-09-01T01:39:19;100055.53;;;18.03;76.46
68107;BME280;54892;47.488;19.026;2022-09-01T01:42:24;100053.75;;;17.98;76.55
68107;BME280;54892;47.488;19.026;2022-09-01T01:45:27;100063.16;;;17.95;76.19
68107;BME280;54892;47.488;19.026;2022-09-01T01:48:31;100060.16;;;17.97;77.05
68107;BME280;54892;47.488;19.026;2022-09-01T01:51:35;100052.50;;;17.81;74.84
68107;BME280;54892;47.488;19.026;2022-09-01T01:54:38;100051.59;;;17.86;75.91
68107;BME280;54892;47.488;19.026;2022-09-01T01:57:44;100048.41;;;17.98;75.63
68107;BME280;54892;47.488;19.026;2022-09-01T02:00:51;100044.75;;;17.94;74.58
68107;BME280;54892;47.488;19.026;2022-09-01T02:03:55;100042.34;;;18.06;75.15
68107;BME280;54892;47.488;19.026;2022-09-01T02:06:58;100039.00;;;18.01;75.54
68107;BME280;54892;47.488;19.026;2022-09-01T02:10:02;100032.97;;;17.72;74.83
68107;BME280;54892;47.488;19.026;2022-09-01T02:13:07;100020.81;;;17.66;75.61
68107;BME280;54892;47.488;19.026;2022-09-01T02:16:12;100019.63;;;17.72;75.60
68107;BME280;54892;47.488;19.026;2022-09-01T02:19:17;100018.41;;;17.56;75.73
68107;BME280;54892;47.488;19.026;2022-09-01T02:22:22;100012.81;;;17.66;75.89
68107;BME280;54892;47.488;19.026;2022-09-01T02:25:25;100003.56;;;17.49;76.30
68107;BME280;54892;47.488;19.026;2022-09-01T02:28:32;100010.81;;;17.49;75.90
68107;BME280;54892;47.488;19.026;2022-09-01T02:31:35;100017.56;;;17.69;76.27
68107;BME280;54892;47.488;19.026;2022-09-01T02:34:40;100022.03;;;17.60;76.12
68107;BME280;54892;47.488;19.026;2022-09-01T02:37:43;100023.59;;;17.61;75.98
68107;BME280;54892;47.488;19.026;2022-09-01T02:40:50;100019.69;;;17.44;75.84
68107;BME280;54892;47.488;19.026;2022-09-01T02:43:55;100013.87;;;17.42;75.88
68107;BME280;54892;47.488;19.026;2022-09-01T02:47:01;100010.41;;;17.42;75.78
68107;BME280;54892;47.488;19.026;2022-09-01T02:50:08;99998.16;;;17.41;75.69
68107;BME280;54892;47.488;19.026;2022-09-01T02:53:14;99999.84;;;17.37;75.98
68107;BME280;54892;47.488;19.026;2022-09-01T02:56:17;100001.50;;;17.46;75.38
68107;BME280;54892;47.488;19.026;2022-09-01T02:59:23;100002.66;;;17.54;75.26
68107;BME280;54892;47.488;19.026;2022-09-01T03:02:27;99992.38;;;17.61;74.76
68107;BME280;54892;47.488;19.026;2022-09-01T03:05:31;99991.81;;;17.50;73.86
68107;BME280;54892;47.488;19.026;2022-09-01T03:08:35;99986.47;;;17.50;73.86
68107;BME280;54892;47.488;19.026;2022-09-01T03:11:41;99992.56;;;17.42;73.22
68107;BME280;54892;47.488;19.026;2022-09-01T03:14:46;99992.41;;;17.47;73.52
68107;BME280;54892;47.488;19.026;2022-09-01T03:17:48;99990.22;;;17.27;73.29
68107;BME280;54892;47.488;19.026;2022-09-01T03:20:53;99984.50;;;17.19;72.53
68107;BME280;54892;47.488;19.026;2022-09-01T03:23:56;99986.84;;;17.21;73.09
68107;BME280;54892;47.488;19.026;2022-09-01T03:27:02;99977.28;;;17.20;72.70
68107;BME280;54892;47.488;19.026;2022-09-01T03:30:08;99982.06;;;17.09;73.02
68107;BME280;54892;47.488;19.026;2022-09-01T03:33:11;99986.56;;;17.09;73.37
68107;BME280;54892;47.488;19.026;2022-09-01T03:36:15;100003.91;;;17.34;73.66
68107;BME280;54892;47.488;19.026;2022-09-01T03:39:20;100008.56;;;17.28;73.24
68107;BME280;54892;47.488;19.026;2022-09-01T03:42:24;100016.87;;;17.27;72.78
68107;BME280;54892;47.488;19.026;2022-09-01T03:45:31;100011.88;;;17.11;72.15
68107;BME280;54892;47.488;19.026;2022-09-01T03:48:36;100021.81;;;17.33;72.28
68107;BME280;54892;47.488;19.026;2022-09-01T03:51:40;100021.94;;;17.14;71.88
68107;BME280;54892;47.488;19.026;2022-09-01T03:54:44;100007.50;;;17.15;71.89
68107;BME280;54892;47.488;19.026;2022-09-01T03:57:48;100004.75;;;17.07;72.14
68107;BME280;54892;47.488;19.026;2022-09-01T04:00:54;99992.91;;;17.13;71.92
68107;BME280;54892;47.488;19.026;2022-09-01T04:03:57;99992.81;;;17.04;72.03
68107;BME280;54892;47.488;19.026;2022-09-01T04:07:02;99990.25;;;16.99;72.95
68107;BME280;54892;47.488;19.026;2022-09-01T04:10:05;99988.16;;;17.10;72.85
68107;BME280;54892;47.488;19.026;2022-09-01T04:13:12;99977.91;;;17.03;72.67
68107;BME280;54892;47.488;19.026;2022-09-01T04:16:17;99982.75;;;17.01;72.56
68107;BME280;54892;47.488;19.026;2022-09-01T04:19:34;99987.16;;;17.05;73.43
68107;BME280;54892;47.488;19.026;2022-09-01T04:22:40;99992.13;;;16.98;73.91
68107;BME280;54892;47.488;19.026;2022-09-01T04:25:43;99994.00;;;16.84;74.25
68107;BME280;54892;47.488;19.026;2022-09-01T04:28:47;99997.94;;;16.72;75.54
68107;BME280;54892;47.488;19.026;2022-09-01T04:31:53;100004.38;;;16.71;76.28
68107;BME280;54892;47.488;19.026;2022-09-01T04:34:56;99996.47;;;16.80;76.20
68107;BME280;54892;47.488;19.026;2022-09-01T04:37:59;99986.59;;;16.81;77.19
68107;BME280;54892;47.488;19.026;2022-09-01T04:41:04;99985.91;;;16.75;77.46
68107;BME280;54892;47.488;19.026;2022-09-01T04:44:08;99985.91;;;16.75;77.77
68107;BME280;54892;47.488;19.026;2022-09-01T04:47:13;99993.00;;;16.80;78.07
68107;BME280;54892;47.488;19.026;2022-09-01T04:50:20;99989.47;;;16.70;77.80
68107;BME280;54892;47.488;19.026;2022-09-01T04:53:24;99992.91;;;16.71;77.52
68107;BME280;54892;47.488;19.026;2022-09-01T04:56:28;99983.91;;;16.67;78.02
68107;BME280;54892;47.488;19.026;2022-09-01T04:59:31;99985.09;;;16.74;77.67
68107;BME280;54892;47.488;19.026;2022-09-01T05:02:36;99987.19;;;16.64;76.66
68107;BME280;54892;47.488;19.026;2022-09-01T05:05:41;99991.72;;;16.77;77.47
68107;BME280;54892;47.488;19.026;2022-09-01T05:08:44;99989.16;;;16.72;77.38
68107;BME280;54892;47.488;19.026;2022-09-01T05:11:48;99996.34;;;16.57;77.04
68107;BME280;54892;47.488;19.026;2022-09-01T05:14:51;99993.09;;;16.61;77.38
68107;BME280;54892;47.488;19.026;2022-09-01T05:17:55;99994.56;;;16.67;77.78
68107;BME280;54892;47.488;19.026;2022-09-01T05:21:04;99996.06;;;16.45;77.17
68107;BME280;54892;47.488;19.026;2022-09-01T05:24:12;100007.72;;;16.49;78.32
68107;BME280;54892;47.488;19.026;2022-09-01T05:27:17;100016.97;;;16.52;78.28
68107;BME280;54892;47.488;19.026;2022-09-01T05:30:21;100008.59;;;16.58;78.42
68107;BME280;54892;47.488;19.026;2022-09-01T05:33:30;100006.97;;;16.43;78.22
68107;BME280;54892;47.488;19.026;2022-09-01T05:36:40;100014.13;;;16.48;78.67
68107;BME280;54892;47.488;19.026;2022-09-01T05:39:43;99996.25;;;16.49;78.69
68107;BME280;54892;47.488;19.026;2022-09-01T05:42:47;100000.56;;;16.44;78.59
68107;BME280;54892;47.488;19.026;2022-09-01T05:45:51;99999.78;;;16.44;78.53
68107;BME280;54892;47.488;19.026;2022-09-01T05:49:11;100005.91;;;16.44;78.85
68107;BME280;54892;47.488;19.026;2022-09-01T05:52:17;100008.69;;;16.53;79.26
68107;BME280;54892;47.488;19.026;2022-09-01T05:55:27;100006.13;;;16.48;79.11
68107;BME280;54892;47.488;19.026;2022-09-01T05:58:35;100012.72;;;16.51;78.76
68107;BME280;54892;47.488;19.026;2022-09-01T06:02:00;100005.63;;;16.46;78.70
68107;BME280;54892;47.488;19.026;2022-09-01T06:05:05;100016.94;;;16.38;78.26
68107;BME280;54892;47.488;19.026;2022-09-01T06:08:08;100013.69;;;16.27;77.85
68107;BME280;54892;47.488;19.026;2022-09-01T06:11:14;100020.69;;;16.37;78.33
68107;BME280;54892;47.488;19.026;2022-09-01T06:14:18;100016.13;;;16.23;78.07
68107;BME280;54892;47.488;19.026;2022-09-01T06:17:22;100013.87;;;16.31;78.08
68107;BME280;54892;47.488;19.026;2022-09-01T06:20:27;100009.87;;;16.47;77.85
68107;BME280;54892;47.488;19.026;2022-09-01T06:23:30;100013.50;;;16.51;78.10
68107;BME280;54892;47.488;19.026;2022-09-01T06:26:34;100013.22;;;16.67;77.98
68107;BME280;54892;47.488;19.026;2022-09-01T06:29:39;100017.19;;;16.69;77.53
68107;BME280;54892;47.488;19.026;2022-09-01T06:32:43;100015.81;;;16.58;75.97
68107;BME280;54892;47.488;19.026;2022-09-01T06:35:47;100013.72;;;16.55;76.47
68107;BME280;54892;47.488;19.026;2022-09-01T06:38:51;100021.69;;;16.41;77.73
68107;BME280;54892;47.488;19.026;2022-09-01T06:41:55;100024.00;;;16.62;77.90
68107;BME280;54892;47.488;19.026;2022-09-01T06:44:59;100029.63;;;16.74;77.97
68107;BME280;54892;47.488;19.026;2022-09-01T06:48:03;100029.12;;;16.72;76.58
68107;BME280;54892;47.488;19.026;2022-09-01T06:51:07;100024.41;;;16.83;76.72
68107;BME280;54892;47.488;19.026;2022-09-01T06:54:15;100027.47;;;16.76;77.09
68107;BME280;54892;47.488;19.026;2022-09-01T06:57:21;100037.41;;;16.84;76.24
68107;BME280;54892;47.488;19.026;2022-09-01T07:00:45;100028.34;;;16.85;76.26
68107;BME280;54892;47.488;19.026;2022-09-01T07:03:50;100033.87;;;16.89;75.79
68107;BME280;54892;47.488;19.026;2022-09-01T07:06:56;100024.31;;;16.88;75.74
68107;BME280;54892;47.488;19.026;2022-09-01T07:10:00;100037.81;;;16.92;76.06
68107;BME280;54892;47.488;19.026;2022-09-01T07:13:18;100054.31;;;16.94;76.05
68107;BME280;54892;47.488;19.026;2022-09-01T07:16:24;100052.66;;;16.98;76.78
68107;BME280;54892;47.488;19.026;2022-09-01T07:19:32;100056.72;;;16.95;76.90
68107;BME280;54892;47.488;19.026;2022-09-01T07:22:53;100062.84;;;16.96;77.55
68107;BME280;54892;47.488;19.026;2022-09-01T07:26:04;100049.75;;;16.94;75.83
68107;BME280;54892;47.488;19.026;2022-09-01T07:29:07;100057.13;;;17.02;75.72
68107;BME280;54892;47.488;19.026;2022-09-01T07:32:12;100054.53;;;17.11;76.67
68107;BME280;54892;47.488;19.026;2022-09-01T07:35:37;100062.25;;;17.13;76.67
68107;BME280;54892;47.488;19.026;2022-09-01T07:39:02;100056.12;;;17.12;75.69
68107;BME280;54892;47.488;19.026;2022-09-01T07:42:25;100056.69;;;17.23;76.19
68107;BME280;54892;47.488;19.026;2022-09-01T07:45:49;100063.50;;;17.29;75.17
68107;BME280;54892;47.488;19.026;2022-09-01T07:49:01;100069.16;;;17.28;72.96
68107;BME280;54892;47.488;19.026;2022-09-01T07:52:24;100057.19;;;17.25;73.32
68107;BME280;54892;47.488;19.026;2022-09-01T07:55:29;100065.00;;;17.35;72.97
68107;BME280;54892;47.488;19.026;2022-09-01T07:58:32;100061.53;;;17.35;72.59
68107;BME280;54892;47.488;19.026;2022-09-01T08:01:35;100056.28;;;17.30;71.45
68107;BME280;54892;47.488;19.026;2022-09-01T08:04:39;100053.34;;;17.31;70.30
68107;BME280;54892;47.488;19.026;2022-09-01T08:07:42;100057.50;;;17.24;71.27
68107;BME280;54892;47.488;19.026;2022-09-01T08:10:56;100050.94;;;17.30;72.00
68107;BME280;54892;47.488;19.026;2022-09-01T08:14:07;100056.69;;;17.23;72.30
68107;BME280;54892;47.488;19.026;2022-09-01T08:17:10;100049.00;;;17.22;72.72
68107;BME280;54892;47.488;19.026;2022-09-01T08:20:17;100055.69;;;17.33;74.41
68107;BME280;54892;47.488;19.026;2022-09-01T08:23:21;100054.22;;;17.27;72.35
68107;BME280;54892;47.488;19.026;2022-09-01T08:26:28;100050.66;;;17.17;72.94
68107;BME280;54892;47.488;19.026;2022-09-01T08:29:31;100054.69;;;17.29;70.75
68107;BME280;54892;47.488;19.026;2022-09-01T08:32:35;100062.59;;;17.34;70.90
68107;BME280;54892;47.488;19.026;2022-09-01T08:35:38;100069.50;;;17.49;72.49
68107;BME280;54892;47.488;19.026;2022-09-01T08:38:42;100071.28;;;17.54;73.85
68107;BME280;54892;47.488;19.026;2022-09-01T08:41:50;100070.19;;;17.55;72.30
68107;BME280;54892;47.488;19.026;2022-09-01T08:45:00;100074.63;;;17.59;69.06
68107;BME280;54892;47.488;19.026;2022-09-01T08:48:06;100075.78;;;17.67;69.24
68107;BME280;54892;47.488;19.026;2022-09-01T08:51:34;100073.63;;;17.69;66.25
68107;BME280;54892;47.488;19.026;2022-09-01T08:54:40;100072.00;;;17.82;68.72
68107;BME280;54892;47.488;19.026;2022-09-01T08:57:46;100068.84;;;17.80;67.02
68107;BME280;54892;47.488;19.026;2022-09-01T09:00:54;100076.94;;;17.75;63.12
68107;BME280;54892;47.488;19.026;2022-09-01T09:04:03;100069.62;;;17.80;62.98
68107;BME280;54892;47.488;19.026;2022-09-01T09:07:11;100078.78;;;18.02;65.40
68107;BME280;54892;47.488;19.026;2022-09-01T09:10:19;100067.06;;;18.12;66.64
68107;BME280;54892;47.488;19.026;2022-09-01T09:13:26;100072.81;;;18.28;67.53
68107;BME280;54892;47.488;19.026;2022-09-01T09:16:34;100075.00;;;18.26;66.77
68107;BME280;54892;47.488;19.026;2022-09-01T09:19:39;100070.09;;;18.19;66.25
68107;BME280;54892;47.488;19.026;2022-09-01T09:22:43;100075.59;;;18.23;67.39
68107;BME280;54892;47.488;19.026;2022-09-01T09:25:47;100062.62;;;18.30;68.77
68107;BME280;54892;47.488;19.026;2022-09-01T09:28:53;100066.91;;;18.40;68.96
68107;BME280;54892;47.488;19.026;2022-09-01T09:32:03;100058.09;;;18.39;68.31
68107;BME280;54892;47.488;19.026;2022-09-01T09:35:15;100058.72;;;18.36;67.03
68107;BME280;54892;47.488;19.026;2022-09-01T09:38:20;100054.00;;;18.33;67.15
68107;BME280;54892;47.488;19.026;2022-09-01T09:41:29;100051.84;;;18.44;66.34
68107;BME280;54892;47.488;19.026;2022-09-01T09:44:38;100048.25;;;18.49;65.97
68107;BME280;54892;47.488;19.026;2022-09-01T09:47:45;100048.75;;;18.51;65.26
68107;BME280;54892;47.488;19.026;2022-09-01T09:50:48;100041.97;;;18.53;65.24
68107;BME280;54892;47.488;19.026;2022-09-01T09:53:51;100048.03;;;18.68;64.42
68107;BME280;54892;47.488;19.026;2022-09-01T09:57:03;100041.16;;;18.84;65.83
68107;BME280;54892;47.488;19.026;2022-09-01T10:00:14;100048.16;;;18.94;64.97
68107;BME280;54892;47.488;19.026;2022-09-01T10:03:20;100037.16;;;19.05;64.25
68107;BME280;54892;47.488;19.026;2022-09-01T10:06:37;100036.41;;;19.13;61.98
68107;BME280;54892;47.488;19.026;2022-09-01T10:09:42;100034.19;;;19.06;60.82
68107;BME280;54892;47.488;19.026;2022-09-01T10:12:45;100028.06;;;19.14;60.53
68107;BME280;54892;47.488;19.026;2022-09-01T10:15:51;100038.91;;;19.18;59.39
68107;BME280;54892;47.488;19.026;2022-09-01T10:18:55;100036.44;;;19.30;60.57
68107;BME280;54892;47.488;19.026;2022-09-01T10:22:01;100030.75;;;19.23;55.49
68107;BME280;54892;47.488;19.026;2022-09-01T10:25:05;100035.31;;;19.31;57.57
68107;BME280;54892;47.488;19.026;2022-09-01T10:28:10;100031.56;;;19.50;58.13
68107;BME280;54892;47.488;19.026;2022-09-01T10:31:22;100021.81;;;19.63;56.94
68107;BME280;54892;47.488;19.026;2022-09-01T10:34:31;100026.69;;;19.70;54.93
68107;BME280;54892;47.488;19.026;2022-09-01T10:37:36;100028.25;;;19.71;54.44
68107;BME280;54892;47.488;19.026;2022-09-01T10:40:42;100022.44;;;19.69;53.96
68107;BME280;54892;47.488;19.026;2022-09-01T10:43:49;100018.50;;;19.75;52.69
68107;BME280;54892;47.488;19.026;2022-09-01T10:46:54;100021.34;;;19.87;53.32
68107;BME280;54892;47.488;19.026;2022-09-01T10:50:00;100016.13;;;20.00;51.64
68107;BME280;54892;47.488;19.026;2022-09-01T10:53:07;100022.09;;;20.05;50.92
68107;BME280;54892;47.488;19.026;2022-09-01T10:56:12;100024.78;;;19.97;50.01
68107;BME280;54892;47.488;19.026;2022-09-01T10:59:25;100019.75;;;19.95;50.40
68107;BME280;54892;47.488;19.026;2022-09-01T11:02:35;100013.91;;;19.84;49.63
68107;BME280;54892;47.488;19.026;2022-09-01T11:05:58;100011.09;;;19.98;48.21
68107;BME280;54892;47.488;19.026;2022-09-01T11:09:16;100007.09;;;20.13;49.30
68107;BME280;54892;47.488;19.026;2022-09-01T11:12:36;100010.69;;;20.35;49.13
68107;BME280;54892;47.488;19.026;2022-09-01T11:15:43;100008.75;;;20.44;47.78
68107;BME280;54892;47.488;19.026;2022-09-01T11:18:49;100018.00;;;20.56;48.07
68107;BME280;54892;47.488;19.026;2022-09-01T11:22:02;100013.06;;;20.66;47.31
68107;BME280;54892;47.488;19.026;2022-09-01T11:28:40;100009.75;;;20.69;46.03
68107;BME280;54892;47.488;19.026;2022-09-01T11:31:43;100009.41;;;20.71;45.36
68107;BME280;54892;47.488;19.026;2022-09-01T11:34:48;100006.63;;;20.59;45.24
68107;BME280;54892;47.488;19.026;2022-09-01T11:37:54;100005.81;;;20.67;45.34
68107;BME280;54892;47.488;19.026;2022-09-01T11:40:58;100011.13;;;20.84;46.16
68107;BME280;54892;47.488;19.026;2022-09-01T11:44:02;100007.81;;;20.79;44.57
68107;BME280;54892;47.488;19.026;2022-09-01T11:47:14;100001.59;;;20.96;44.08
68107;BME280;54892;47.488;19.026;2022-09-01T11:50:20;99999.78;;;20.79;43.80
68107;BME280;54892;47.488;19.026;2022-09-01T11:53:24;100004.44;;;20.91;42.43
68107;BME280;54892;47.488;19.026;2022-09-01T11:56:28;100001.41;;;21.01;44.04
68107;BME280;54892;47.488;19.026;2022-09-01T11:59:32;99997.22;;;21.12;43.44
68107;BME280;54892;47.488;19.026;2022-09-01T12:02:41;100000.56;;;21.09;43.19
68107;BME280;54892;47.488;19.026;2022-09-01T12:05:46;99999.63;;;21.05;43.30
68107;BME280;54892;47.488;19.026;2022-09-01T12:08:53;99998.41;;;21.24;43.80
68107;BME280;54892;47.488;19.026;2022-09-01T12:11:57;99991.72;;;21.30;42.10
68107;BME280;54892;47.488;19.026;2022-09-01T12:15:01;99987.06;;;21.39;42.23
68107;BME280;54892;47.488;19.026;2022-09-01T12:18:13;99992.38;;;21.48;41.21
68107;BME280;54892;47.488;19.026;2022-09-01T12:21:21;99990.91;;;21.51;41.30
68107;BME280;54892;47.488;19.026;2022-09-01T12:24:25;99986.81;;;21.53;40.54
68107;BME280;54892;47.488;19.026;2022-09-01T12:27:28;99992.06;;;21.71;41.55
68107;BME280;54892;47.488;19.026;2022-09-01T12:30:32;99990.25;;;21.75;40.51
68107;BME280;54892;47.488;19.026;2022-09-01T12:33:41;99983.66;;;21.72;40.01
68107;BME280;54892;47.488;19.026;2022-09-01T12:37:00;99991.34;;;21.95;40.75
68107;BME280;54892;47.488;19.026;2022-09-01T12:40:04;99989.44;;;21.96;40.45
68107;BME280;54892;47.488;19.026;2022-09-01T12:43:08;99980.22;;;21.84;39.61
68107;BME280;54892;47.488;19.026;2022-09-01T12:46:11;99984.34;;;21.82;40.31
68107;BME280;54892;47.488;19.026;2022-09-01T12:49:18;99981.56;;;21.90;39.71
68107;BME280;54892;47.488;19.026;2022-09-01T12:52:23;99981.03;;;21.97;38.40
68107;BME280;54892;47.488;19.026;2022-09-01T12:55:28;99984.78;;;22.17;39.63
68107;BME280;54892;47.488;19.026;2022-09-01T12:58:55;99979.72;;;22.16;38.27
68107;BME280;54892;47.488;19.026;2022-09-01T13:05:27;99971.44;;;22.21;38.28
68107;BME280;54892;47.488;19.026;2022-09-01T13:08:33;99974.59;;;22.11;37.75
68107;BME280;54892;47.488;19.026;2022-09-01T13:11:38;99966.59;;;22.02;37.88
68107;BME280;54892;47.488;19.026;2022-09-01T13:15:03;99968.69;;;21.96;37.80
68107;BME280;54892;47.488;19.026;2022-09-01T13:18:05;99969.38;;;21.93;37.71
68107;BME280;54892;47.488;19.026;2022-09-01T13:21:09;99968.19;;;22.03;37.75
68107;BME280;54892;47.488;19.026;2022-09-01T13:24:14;99970.97;;;22.07;37.84
68107;BME280;54892;47.488;19.026;2022-09-01T13:27:18;99965.16;;;22.04;37.50
68107;BME280;54892;47.488;19.026;2022-09-01T13:30:23;99970.75;;;22.12;38.01
68107;BME280;54892;47.488;19.026;2022-09-01T13:33:29;99972.09;;;22.18;38.18
68107;BME280;54892;47.488;19.026;2022-09-01T13:36:52;99969.66;;;22.25;38.00
68107;BME280;54892;47.488;19.026;2022-09-01T13:39:57;99967.66;;;22.34;37.23
68107;BME280;54892;47.488;19.026;2022-09-01T13:43:00;99975.06;;;22.50;37.17
68107;BME280;54892;47.488;19.026;2022-09-01T13:46:05;99977.87;;;22.54;37.90
68107;BME280;54892;47.488;19.026;2022-09-01T13:49:08;99971.25;;;22.63;37.62
68107;BME280;54892;47.488;19.026;2022-09-01T13:52:32;99983.81;;;22.84;38.12
68107;BME280;54892;47.488;19.026;2022-09-01T13:55:38;99974.94;;;22.71;35.86
68107;BME280;54892;47.488;19.026;2022-09-01T13:58:41;99985.13;;;22.78;35.15
68107;BME280;54892;47.488;19.026;2022-09-01T14:01:44;99975.88;;;22.63;35.42
68107;BME280;54892;47.488;19.026;2022-09-01T14:04:47;99973.16;;;22.50;35.67
68107;BME280;54892;47.488;19.026;2022-09-01T14:07:50;99976.66;;;22.51;36.51
68107;BME280;54892;47.488;19.026;2022-09-01T14:10:55;99981.91;;;22.47;36.62
68107;BME280;54892;47.488;19.026;2022-09-01T14:13:58;99973.97;;;22.51;36.69
68107;BME280;54892;47.488;19.026;2022-09-01T14:17:01;99979.00;;;22.53;35.82
68107;BME280;54892;47.488;19.026;2022-09-01T14:20:05;99977.66;;;22.59;36.56
68107;BME280;54892;47.488;19.026;2022-09-01T14:23:09;99979.53;;;22.46;36.80
68107;BME280;54892;47.488;19.026;2022-09-01T14:26:15;99974.38;;;22.41;35.80
68107;BME280;54892;47.488;19.026;2022-09-01T14:29:18;99975.63;;;22.43;35.74
68107;BME280;54892;47.488;19.026;2022-09-01T14:32:22;99978.13;;;22.48;36.30
68107;BME280;54892;47.488;19.026;2022-09-01T14:35:28;99967.34;;;22.48;37.77
68107;BME280;54892;47.488;19.026;2022-09-01T14:38:33;99973.94;;;22.39;35.11
68107;BME280;54892;47.488;19.026;2022-09-01T14:41:38;99971.25;;;22.51;36.83
68107;BME280;54892;47.488;19.026;2022-09-01T14:44:41;99983.81;;;22.47;37.25
68107;BME280;54892;47.488;19.026;2022-09-01T14:47:45;99976.66;;;22.51;35.84
68107;BME280;54892;47.488;19.026;2022-09-01T14:50:48;99975.41;;;22.48;35.51
68107;BME280;54892;47.488;19.026;2022-09-01T14:53:52;99974.72;;;22.51;36.31
68107;BME280;54892;47.488;19.026;2022-09-01T14:56:57;99982.38;;;22.49;36.86
68107;BME280;54892;47.488;19.026;2022-09-01T15:00:20;99982.12;;;22.55;36.29
68107;BME280;54892;47.488;19.026;2022-09-01T15:03:25;99989.88;;;22.56;35.01
68107;BME280;54892;47.488;19.026;2022-09-01T15:06:29;99988.31;;;22.55;35.28
68107;BME280;54892;47.488;19.026;2022-09-01T15:09:32;99991.31;;;22.54;34.85
68107;BME280;54892;47.488;19.026;2022-09-01T15:12:37;99987.75;;;22.49;35.39
68107;BME280;54892;47.488;19.026;2022-09-01T15:15:41;99982.69;;;22.48;35.49
68107;BME280;54892;47.488;19.026;2022-09-01T15:18:44;99984.22;;;22.36;35.67
68107;BME280;54892;47.488;19.026;2022-09-01T15:21:47;99978.63;;;22.29;36.25
68107;BME280;54892;47.488;19.026;2022-09-01T15:24:50;99983.88;;;22.26;36.22
68107;BME280;54892;47.488;19.026;2022-09-01T15:27:54;99982.12;;;22.42;34.68
68107;BME280;54892;47.488;19.026;2022-09-01T15:30:57;99987.97;;;22.44;34.84
68107;BME280;54892;47.488;19.026;2022-09-01T15:34:01;99986.72;;;22.54;34.63
68107;BME280;54892;47.488;19.026;2022-09-01T15:37:05;99974.06;;;22.42;33.50
68107;BME280;54892;47.488;19.026;2022-09-01T15:40:09;99982.78;;;22.51;33.54
68107;BME280;54892;47.488;19.026;2022-09-01T15:43:14;99979.75;;;22.41;34.07
68107;BME280;54892;47.488;19.026;2022-09-01T15:46:18;99981.09;;;22.34;34.08
68107;BME280;54892;47.488;19.026;2022-09-01T15:49:21;99979.06;;;22.31;34.19
68107;BME280;54892;47.488;19.026;2022-09-01T15:52:24;99990.28;;;22.33;32.98
68107;BME280;54892;47.488;19.026;2022-09-01T15:55:28;99984.06;;;22.42;33.65
68107;BME280;54892;47.488;19.026;2022-09-01T15:58:33;99982.56;;;22.32;33.42
68107;BME280;54892;47.488;19.026;2022-09-01T16:01:44;99982.00;;;22.26;34.05
68107;BME280;54892;47.488;19.026;2022-09-01T16:04:48;99984.44;;;22.19;33.29
68107;BME280;54892;47.488;19.026;2022-09-01T16:07:51;99983.31;;;22.08;32.62
68107;BME280;54892;47.488;19.026;2022-09-01T16:10:56;99990.19;;;21.96;32.77